Time;durP1;ratioP1;P1;durP2;ratioP2;P2;SDS_P1;SDS_P2;PMS_P1;PMS_P2;Temp;Humidity;BMP_temperature;BMP_pressure;BME280_temperature;BME280_humidity;BME280_pressure;Samples;Min_cycle;Max_cycle;Signal;HPM_P1;HPM_P2
2022/07/01 00:02:06;;;;;;;12.10;10.98;;;;;;;18.26;54.64;100542.81;5036348;28;20076;-67
2022/07/01 00:04:33;;;;;;;10.52;9.93;;;;;;;18.32;54.57;100559.25;5044276;28;20059;-67
2022/07/01 00:07:00;;;;;;;11.63;10.48;;;;;;;18.21;54.62;100553.09;5051175;28;20057;-66
2022/07/01 00:09:27;;;;;;;10.80;9.85;;;;;;;18.31;54.58;100553.94;5046544;28;20103;-66
2022/07/01 00:11:54;;;;;;;9.30;8.60;;;;;;;18.30;54.75;100543.78;5040403;28;20530;-67
2022/07/01 00:14:22;;;;;;;9.10;8.40;;;;;;;18.38;54.55;100557.09;5042847;28;20496;-67
2022/07/01 00:16:50;;;;;;;14.68;8.57;;;;;;;18.36;54.14;100532.00;5039874;28;20128;-67
2022/07/01 00:19:17;;;;;;;10.52;9.10;;;;;;;18.24;54.30;100512.03;5039373;28;20431;-67
2022/07/01 00:21:44;;;;;;;11.02;9.82;;;;;;;18.20;54.56;100511.03;5046646;28;20049;-67
2022/07/01 00:24:11;;;;;;;9.90;9.00;;;;;;;18.32;54.54;100535.78;5062194;28;20053;-67
2022/07/01 00:26:38;;;;;;;11.40;9.23;;;;;;;18.13;54.40;100499.41;5041028;28;20045;-67
2022/07/01 00:29:05;;;;;;;9.30;8.50;;;;;;;18.33;54.43;100529.00;5043079;28;20068;-66
2022/07/01 00:31:32;;;;;;;10.85;9.80;;;;;;;18.34;54.58;100530.66;5043141;28;20060;-67
2022/07/01 00:33:59;;;;;;;10.93;9.93;;;;;;;18.31;54.70;100517.19;5036488;28;20068;-66
2022/07/01 00:36:26;;;;;;;11.25;9.00;;;;;;;18.20;54.67;100511.88;5038203;28;20049;-67
2022/07/01 00:38:57;;;;;;;10.27;8.90;;;;;;;18.26;54.65;100520.19;5036945;28;20052;-67
2022/07/01 00:41:24;;;;;;;10.23;9.18;;;;;;;17.97;54.95;100473.63;5050286;28;20049;-66
2022/07/01 00:43:51;;;;;;;15.88;10.38;;;;;;;18.11;54.92;100501.72;5054263;28;20083;-67
2022/07/01 00:46:21;;;;;;;;;;;;;;;18.09;54.50;100516.19;5048920;28;20045;-67
2022/07/01 00:48:51;;;;;;;11.15;9.93;;;;;;;18.16;54.63;100513.69;5036500;28;19921;-67
2022/07/01 00:51:19;;;;;;;11.77;10.02;;;;;;;18.00;54.95;100495.56;5034782;28;20057;-66
2022/07/01 00:53:47;;;;;;;12.23;10.55;;;;;;;17.77;54.62;100453.34;5047473;28;20046;-65
2022/07/01 00:56:15;;;;;;;11.60;9.40;;;;;;;18.07;54.86;100507.22;5036799;28;20069;-65
2022/07/01 00:58:42;;;;;;;10.38;9.50;;;;;;;18.09;54.97;100515.38;5053680;28;20049;-66
2022/07/01 01:01:09;;;;;;;10.15;9.05;;;;;;;18.13;54.99;100517.19;5041945;28;20058;-66
2022/07/01 01:03:36;;;;;;;12.32;9.50;;;;;;;18.10;55.16;100505.72;5036122;28;20060;-66
2022/07/01 01:06:03;;;;;;;9.90;9.13;;;;;;;17.98;55.04;100480.94;5041448;28;20049;-66
2022/07/01 01:08:30;;;;;;;10.98;10.07;;;;;;;18.09;55.03;100507.72;5049960;28;20080;-65
2022/07/01 01:10:58;;;;;;;11.45;9.68;;;;;;;18.12;54.99;100506.19;5038604;28;20076;-66
2022/07/01 01:13:25;;;;;;;10.32;9.45;;;;;;;18.14;55.35;100518.00;5045826;28;20124;-67
2022/07/01 01:15:51;;;;;;;11.70;10.50;;;;;;;18.10;55.05;100512.19;5040390;28;20092;-66
2022/07/01 01:18:18;;;;;;;12.20;9.50;;;;;;;18.01;54.81;100491.56;5042187;28;20045;-67
2022/07/01 01:20:46;;;;;;;10.57;9.55;;;;;;;18.07;54.97;100501.56;5035972;28;20509;-67
2022/07/01 01:23:13;;;;;;;11.15;10.15;;;;;;;17.98;54.88;100500.72;5037500;28;20092;-67
2022/07/01 01:25:40;;;;;;;10.73;9.63;;;;;;;17.87;55.35;100482.44;5036370;28;20136;-67
2022/07/01 01:28:07;;;;;;;10.45;9.60;;;;;;;17.80;55.06;100488.56;5035258;28;20128;-67
2022/07/01 01:30:35;;;;;;;10.82;9.75;;;;;;;17.79;55.24;100486.09;5045969;28;20088;-66
2022/07/01 01:33:02;;;;;;;11.65;10.18;;;;;;;17.86;55.74;100500.56;5043117;28;20050;-67
2022/07/01 01:35:29;;;;;;;10.50;9.77;;;;;;;17.85;55.31;100498.91;5052575;28;20045;-67
2022/07/01 01:37:56;;;;;;;12.38;11.27;;;;;;;17.50;55.47;100446.00;5040318;28;20137;-66
2022/07/01 01:40:23;;;;;;;16.83;11.05;;;;;;;17.75;55.99;100494.38;5046299;28;20077;-66
2022/07/01 01:42:49;;;;;;;10.82;10.02;;;;;;;17.71;55.89;100499.03;5037862;28;20128;-66
2022/07/01 01:45:17;;;;;;;11.00;9.98;;;;;;;17.68;56.10;100485.56;5045754;28;20415;-66
2022/07/01 01:47:44;;;;;;;11.90;9.27;;;;;;;17.44;56.32;100452.13;5048753;28;20076;-66
2022/07/01 01:50:14;;;;;;;11.55;10.13;;;;;;;17.63;56.53;100488.53;5045647;28;20095;-66
2022/07/01 01:52:43;;;;;;;11.55;10.68;;;;;;;17.59;56.26;100487.53;5045223;28;20136;-65
2022/07/01 01:55:10;;;;;;;11.57;9.98;;;;;;;17.53;56.25;100473.56;5040877;28;20102;-66
2022/07/01 01:57:37;;;;;;;13.00;10.10;;;;;;;17.58;56.50;100483.88;5042978;28;20089;-66
2022/07/01 02:00:10;;;;;;;10.90;10.00;;;;;;;17.59;56.38;100484.69;5034040;28;20133;-66
2022/07/01 02:02:37;;;;;;;13.02;10.80;;;;;;;17.58;56.54;100495.16;5052615;28;20468;-67
2022/07/01 02:05:06;;;;;;;12.45;10.70;;;;;;;17.51;56.65;100490.00;5052710;28;20393;-66
2022/07/01 02:07:33;;;;;;;11.80;10.90;;;;;;;17.33;56.64;100477.00;5048142;28;20080;-68
2022/07/01 02:10:00;;;;;;;12.98;11.13;;;;;;;17.43;56.97;100490.81;5034288;28;20088;-67
2022/07/01 02:12:27;;;;;;;10.88;9.88;;;;;;;17.27;56.75;100467.03;5048758;28;20573;-67
2022/07/01 02:14:54;;;;;;;12.63;11.40;;;;;;;17.31;56.93;100479.31;5038390;28;20543;-66
2022/07/01 02:17:21;;;;;;;11.23;10.18;;;;;;;17.23;56.67;100478.16;5034105;28;20473;-67
2022/07/01 02:19:48;;;;;;;13.43;12.18;;;;;;;17.26;56.90;100494.44;5047564;28;20124;-66
2022/07/01 02:22:15;;;;;;;11.65;10.43;;;;;;;17.22;57.35;100487.75;5035801;28;20140;-67
2022/07/01 02:24:43;;;;;;;10.65;9.68;;;;;;;17.31;57.21;100499.09;5039319;28;20080;-65
2022/07/01 02:27:12;;;;;;;12.82;11.35;;;;;;;17.22;57.63;100486.94;5043185;28;20056;-67
2022/07/01 02:29:39;;;;;;;13.07;10.80;;;;;;;16.98;57.63;100436.56;5042595;28;20073;-67
2022/07/01 02:32:06;;;;;;;11.52;10.45;;;;;;;17.23;57.22;100475.31;5034928;28;20073;-67
2022/07/01 02:34:33;;;;;;;10.73;9.63;;;;;;;17.34;57.42;100481.50;5037456;28;20091;-66
2022/07/01 02:37:00;;;;;;;10.68;9.88;;;;;;;17.35;57.40;100485.16;5046226;28;20084;-66
2022/07/01 02:39:27;;;;;;;12.43;10.55;;;;;;;17.27;57.33;100455.75;5034118;28;20579;-66
2022/07/01 02:44:40;;;;;;;11.20;10.25;;;;;;;17.34;57.10;100469.38;5037020;28;20117;-68
2022/07/01 02:47:07;;;;;;;11.23;10.35;;;;;;;17.44;57.23;100483.19;5038606;28;20136;-68
2022/07/01 02:49:34;;;;;;;15.13;11.48;;;;;;;17.33;57.28;100462.06;5038637;28;20079;-68
2022/07/01 02:52:00;;;;;;;12.35;10.15;;;;;;;17.39;57.41;100480.50;5049549;28;20128;-67
2022/07/01 02:54:27;;;;;;;10.98;10.02;;;;;;;17.34;57.22;100473.03;5043321;28;20092;-65
2022/07/01 02:56:54;;;;;;;12.23;10.88;;;;;;;17.10;57.28;100413.38;5032082;28;20128;-69
2022/07/01 02:59:21;;;;;;;11.82;10.60;;;;;;;17.46;56.80;100480.84;5043675;28;20757;-67
2022/07/01 03:01:48;;;;;;;10.45;9.52;;;;;;;17.37;57.21;100465.91;5051328;28;20460;-67
2022/07/01 03:04:15;;;;;;;10.70;9.82;;;;;;;17.45;57.19;100473.56;5049158;28;20411;-66
2022/07/01 03:06:42;;;;;;;9.82;9.13;;;;;;;17.33;56.84;100460.06;5052799;28;20049;-66
2022/07/01 03:09:09;;;;;;;9.77;9.00;;;;;;;17.31;56.94;100470.84;5037355;28;20140;-66
2022/07/01 03:11:36;;;;;;;10.65;9.65;;;;;;;17.27;57.07;100462.22;5040881;28;20245;-66
2022/07/01 03:14:03;;;;;;;10.30;9.35;;;;;;;17.21;57.21;100457.88;5043288;28;20085;-66
2022/07/01 03:16:29;;;;;;;11.02;9.95;;;;;;;17.35;57.22;100479.50;5046711;28;20084;-66
2022/07/01 03:18:57;;;;;;;10.60;9.80;;;;;;;16.95;57.54;100417.47;5033896;28;20132;-66
2022/07/01 03:21:24;;;;;;;10.95;10.10;;;;;;;17.12;57.28;100454.19;5033423;28;20132;-66
2022/07/01 03:23:51;;;;;;;9.80;9.18;;;;;;;16.85;57.47;100415.75;5034868;28;20057;-66
2022/07/01 03:26:18;;;;;;;10.82;9.90;;;;;;;17.09;57.01;100452.03;5041908;28;20127;-67
2022/07/01 03:28:45;;;;;;;10.02;9.32;;;;;;;17.11;57.01;100466.66;5046299;28;20124;-65
2022/07/01 03:31:12;;;;;;;10.05;9.35;;;;;;;17.05;57.53;100474.41;5045184;28;20557;-67
2022/07/01 03:33:39;;;;;;;10.43;9.48;;;;;;;16.97;57.76;100469.59;5040225;28;20508;-69
2022/07/01 03:36:07;;;;;;;10.90;9.80;;;;;;;16.92;57.29;100460.41;5033091;28;20603;-69
2022/07/01 03:38:34;;;;;;;11.80;10.82;;;;;;;16.92;57.46;100455.63;5035387;28;20136;-67
2022/07/01 03:41:00;;;;;;;11.23;10.23;;;;;;;16.66;57.85;100430.09;5047573;28;20567;-67
2022/07/01 03:43:27;;;;;;;11.90;10.90;;;;;;;16.76;58.15;100455.22;5037588;28;20092;-67
2022/07/01 03:45:54;;;;;;;24.70;19.67;;;;;;;16.69;57.65;100452.00;5033653;28;20085;-67
2022/07/01 03:48:21;;;;;;;15.93;13.77;;;;;;;16.74;58.11;100449.06;5036599;28;20441;-69
2022/07/01 03:50:48;;;;;;;11.85;10.77;;;;;;;16.67;57.83;100440.22;5042771;28;20147;-70
2022/07/01 03:56:00;;;;;;;11.43;10.53;;;;;;;16.68;58.08;100458.78;5052383;28;20141;-67
2022/07/01 03:58:27;;;;;;;11.95;10.45;;;;;;;16.61;58.25;100449.97;5034643;28;20071;-66
2022/07/01 04:00:54;;;;;;;11.63;10.65;;;;;;;16.57;58.10;100444.13;5038757;28;20057;-66
2022/07/01 04:03:21;;;;;;;13.75;10.27;;;;;;;16.49;58.57;100430.84;5035307;28;20152;-66
2022/07/01 04:05:48;;;;;;;16.85;9.38;;;;;;;16.45;58.69;100434.63;5038172;28;20439;-66
2022/07/01 04:08:15;;;;;;;10.40;9.60;;;;;;;16.43;58.69;100436.94;5044088;28;20049;-66
2022/07/01 04:10:42;;;;;;;10.90;10.00;;;;;;;16.35;58.77;100442.19;5044128;28;20064;-66
2022/07/01 04:13:09;;;;;;;10.77;10.03;;;;;;;16.26;59.08;100432.84;5044597;28;20140;-65
2022/07/01 04:15:55;;;;;;;10.95;9.52;;;;;;;16.08;59.01;100409.38;5041265;28;20055;-66
2022/07/01 04:18:23;;;;;;;10.20;9.50;;;;;;;16.43;59.12;100453.84;5045492;28;20053;-66
2022/07/01 04:23:35;;;;;;;11.00;9.98;;;;;;;16.38;58.88;100451.19;5042726;28;20085;-67
2022/07/01 04:26:03;;;;;;;10.60;9.75;;;;;;;16.28;58.79;100427.75;5041031;28;20088;-67
2022/07/01 04:28:54;;;;;;;10.55;9.85;;;;;;;16.42;58.83;100455.00;5034291;28;20041;-67
2022/07/01 04:31:21;;;;;;;11.00;10.00;;;;;;;16.41;59.00;100453.31;5036737;28;20057;-67
2022/07/01 04:33:49;;;;;;;15.87;10.13;;;;;;;16.40;58.79;100454.50;5034894;28;20115;-67
2022/07/01 04:36:16;;;;;;;10.63;9.67;;;;;;;16.35;58.99;100441.38;5032506;28;20050;-67
2022/07/01 04:38:43;;;;;;;9.95;9.10;;;;;;;16.27;59.29;100436.50;5032251;28;20148;-67
2022/07/01 04:43:55;;;;;;;10.90;10.00;;;;;;;16.27;58.98;100451.44;5034209;28;20144;-65
2022/07/01 04:46:22;;;;;;;15.07;10.57;;;;;;;15.98;58.89;100406.00;5034150;28;20137;-66
2022/07/01 04:48:49;;;;;;;14.88;10.40;;;;;;;16.25;58.83;100444.47;5041632;28;20045;-67
2022/07/01 04:51:16;;;;;;;12.23;11.10;;;;;;;16.24;58.92;100445.59;5028710;28;20409;-67
2022/07/01 04:53:43;;;;;;;15.13;10.25;;;;;;;16.10;59.08;100451.28;5032919;28;20107;-67
2022/07/01 04:56:09;;;;;;;11.67;10.67;;;;;;;16.12;59.23;100463.09;5031906;28;20152;-68
2022/07/01 04:58:36;;;;;;;10.43;9.50;;;;;;;16.23;59.22;100461.66;5034857;28;20132;-67
2022/07/01 05:01:03;;;;;;;11.23;10.13;;;;;;;16.30;59.44;100467.69;5031095;28;20073;-67
2022/07/01 05:03:30;;;;;;;11.00;10.10;;;;;;;16.31;59.17;100460.09;5032801;28;20052;-67
2022/07/01 05:05:57;;;;;;;11.98;10.63;;;;;;;16.30;59.14;100447.13;5050311;28;20053;-67
2022/07/01 05:08:24;;;;;;;12.03;11.03;;;;;;;16.27;59.44;100450.59;5050151;28;20409;-67
2022/07/01 05:10:51;;;;;;;10.82;9.95;;;;;;;16.19;59.17;100448.56;5037172;28;20128;-67
2022/07/01 05:13:17;;;;;;;11.63;10.45;;;;;;;16.17;59.48;100453.66;5044294;28;20085;-67
2022/07/01 05:15:44;;;;;;;11.97;10.40;;;;;;;16.10;59.31;100445.66;5042549;28;20140;-66
2022/07/01 05:23:42;;;;;;;10.50;9.70;;;;;;;16.12;59.45;100468.72;5044855;28;20099;-65
2022/07/01 05:26:15;;;;;;;13.00;11.85;;;;;;;16.25;59.45;100465.00;5041137;28;20136;-66
2022/07/01 05:28:43;;;;;;;10.88;9.93;;;;;;;16.26;59.31;100440.47;5046784;28;20053;-66
2022/07/01 05:31:14;;;;;;;11.57;10.37;;;;;;;16.47;59.35;100460.50;5043447;28;20049;-69
2022/07/01 05:33:41;;;;;;;10.18;9.48;;;;;;;16.56;59.42;100472.66;5041551;28;20053;-74
2022/07/01 05:36:08;;;;;;;10.80;9.75;;;;;;;16.56;59.37;100465.03;5034307;28;20084;-68
2022/07/01 05:38:34;;;;;;;13.00;10.18;;;;;;;16.55;59.36;100438.00;5047231;28;20135;-70
2022/07/01 05:41:01;;;;;;;10.40;9.65;;;;;;;16.88;59.15;100476.34;5047103;28;20137;-78
2022/07/01 05:43:30;;;;;;;9.95;8.90;;;;;;;16.98;59.29;100464.75;5050290;28;20135;-73
2022/07/01 05:45:57;;;;;;;10.02;9.13;;;;;;;16.88;59.30;100432.03;5034093;28;20081;-67
2022/07/01 05:48:24;;;;;;;9.75;8.93;;;;;;;17.10;59.24;100456.53;5035352;28;20045;-67
2022/07/01 05:50:52;;;;;;;8.50;7.93;;;;;;;17.31;58.69;100468.03;5045575;28;20095;-67
2022/07/01 05:53:20;;;;;;;14.85;9.73;;;;;;;17.37;58.82;100454.63;5046206;28;20075;-66
2022/07/01 05:55:47;;;;;;;9.30;8.60;;;;;;;17.58;58.19;100474.56;5048927;28;20132;-67
2022/07/01 05:58:15;;;;;;;9.95;8.55;;;;;;;17.75;58.20;100466.94;5048862;28;20075;-66
2022/07/01 06:00:43;;;;;;;15.00;9.05;;;;;;;17.86;58.32;100458.19;5033235;28;20476;-67
2022/07/01 06:03:11;;;;;;;9.50;8.70;;;;;;;18.12;58.01;100467.50;5046823;28;20080;-66
2022/07/01 06:05:38;;;;;;;11.23;8.95;;;;;;;18.14;57.74;100453.00;5035887;28;20106;-67
2022/07/01 06:08:06;;;;;;;10.27;9.38;;;;;;;18.52;57.02;100472.91;5045655;28;20448;-66
2022/07/01 06:10:34;;;;;;;8.90;8.10;;;;;;;18.67;56.42;100457.41;5050970;28;20127;-66
2022/07/01 06:13:01;;;;;;;9.15;8.23;;;;;;;18.70;56.13;100434.94;5048817;28;20135;-66
2022/07/01 06:15:29;;;;;;;9.23;8.52;;;;;;;18.98;55.90;100451.50;5041729;28;20091;-66
2022/07/01 06:17:57;;;;;;;9.45;8.60;;;;;;;19.36;55.28;100470.44;5035927;28;20095;-66
2022/07/01 06:20:24;;;;;;;9.30;8.60;;;;;;;19.54;54.68;100471.16;5039272;28;20148;-66
2022/07/01 06:22:51;;;;;;;10.48;9.50;;;;;;;19.82;54.53;100483.66;5040937;28;20053;-67
2022/07/01 06:25:18;;;;;;;12.50;11.75;;;;;;;19.89;54.25;100455.59;5045342;28;20444;-67
2022/07/01 06:27:45;;;;;;;12.57;11.13;;;;;;;20.25;54.00;100478.81;5039667;28;20076;-66
2022/07/01 06:30:13;;;;;;;10.65;9.15;;;;;;;20.49;53.62;100476.06;5038156;28;20464;-66
2022/07/01 06:32:40;;;;;;;9.23;8.43;;;;;;;20.77;53.12;100481.16;5040999;28;20095;-66
2022/07/01 06:35:08;;;;;;;9.60;8.57;;;;;;;20.95;52.64;100471.22;5035319;28;20152;-67
2022/07/01 06:37:35;;;;;;;10.13;9.23;;;;;;;21.17;52.29;100474.81;5051341;28;20049;-67
2022/07/01 06:40:04;;;;;;;9.13;8.32;;;;;;;21.24;52.02;100458.00;5045614;28;20045;-65
2022/07/01 06:42:30;;;;;;;11.35;7.82;;;;;;;21.43;51.56;100463.13;5039436;28;20050;-67
2022/07/01 06:44:57;;;;;;;11.82;8.73;;;;;;;21.65;51.64;100481.69;5042796;28;20046;-67
2022/07/01 06:47:24;;;;;;;13.25;8.82;;;;;;;21.84;51.10;100475.38;5034708;28;20481;-69
2022/07/01 06:49:51;;;;;;;11.13;10.23;;;;;;;22.23;50.88;100485.97;5039881;28;20044;-66
2022/07/01 06:52:20;;;;;;;10.23;9.27;;;;;;;22.27;50.25;100462.47;5030474;28;20075;-67
2022/07/01 06:54:47;;;;;;;10.98;10.00;;;;;;;22.76;49.51;100474.41;5034264;28;20127;-66
2022/07/01 06:57:14;;;;;;;12.32;11.02;;;;;;;23.18;48.83;100479.66;5031986;28;20513;-67
2022/07/01 06:59:41;;;;;;;12.75;11.75;;;;;;;23.59;48.64;100485.91;5047343;28;20136;-67
2022/07/01 07:02:08;;;;;;;9.88;8.57;;;;;;;23.75;47.66;100458.22;5048125;28;20589;-67
2022/07/01 07:04:35;;;;;;;10.18;9.18;;;;;;;24.11;46.77;100476.97;5039170;28;20392;-67
2022/07/01 07:07:21;;;;;;;9.15;8.48;;;;;;;24.40;46.76;100491.00;5033905;28;20053;-66
2022/07/01 07:09:48;;;;;;;9.82;8.93;;;;;;;24.44;46.66;100489.91;5034670;28;20383;-67
2022/07/01 07:12:15;;;;;;;10.43;9.35;;;;;;;24.65;46.13;100488.69;5045583;28;20127;-66
2022/07/01 07:14:42;;;;;;;9.40;8.60;;;;;;;24.88;45.58;100480.16;5030842;28;20049;-66
2022/07/01 07:17:09;;;;;;;14.57;9.77;;;;;;;25.12;45.64;100491.25;5051254;28;20128;-66
2022/07/01 07:19:36;;;;;;;12.18;10.98;;;;;;;25.35;45.10;100502.66;5051987;28;20411;-67
2022/07/01 07:22:02;;;;;;;13.57;12.57;;;;;;;25.47;44.39;100496.75;5038334;28;20480;-67
2022/07/01 07:24:29;;;;;;;12.88;11.88;;;;;;;25.63;43.96;100485.16;5041367;28;20136;-67
2022/07/01 07:26:56;;;;;;;9.25;8.55;;;;;;;25.78;43.72;100469.06;5039339;28;20124;-66
2022/07/01 07:29:23;;;;;;;8.27;7.68;;;;;;;26.09;43.71;100505.06;5036259;28;20149;-68
2022/07/01 07:31:50;;;;;;;11.82;10.93;;;;;;;26.22;43.20;100494.19;5040937;28;20057;-66
2022/07/01 07:34:18;;;;;;;9.98;8.98;;;;;;;26.31;42.73;100465.28;5042267;28;20061;-70
2022/07/01 07:36:45;;;;;;;9.90;9.20;;;;;;;26.67;42.29;100500.94;5029997;28;20124;-67
2022/07/01 07:39:11;;;;;;;10.52;8.85;;;;;;;26.77;42.38;100499.38;5034676;28;20128;-66
2022/07/01 07:41:39;;;;;;;9.77;9.07;;;;;;;26.75;42.05;100491.19;5038538;28;20518;-68
2022/07/01 07:44:05;;;;;;;11.32;10.27;;;;;;;26.94;41.75;100515.97;5023227;28;20497;-67
2022/07/01 07:46:32;;;;;;;11.52;9.77;;;;;;;27.01;41.57;100504.59;5034686;28;20093;-66
2022/07/01 07:48:59;;;;;;;12.90;11.57;;;;;;;27.21;41.31;100505.19;5035537;28;20151;-66
2022/07/01 07:51:26;;;;;;;11.20;10.07;;;;;;;27.41;40.62;100502.91;5042737;28;20140;-67
2022/07/01 07:53:53;;;;;;;13.65;12.40;;;;;;;27.55;40.50;100496.47;5036124;28;20072;-67
2022/07/01 07:56:20;;;;;;;9.20;8.52;;;;;;;27.73;40.15;100493.75;5032292;28;20575;-66
2022/07/01 07:58:48;;;;;;;10.20;9.18;;;;;;;27.80;39.67;100493.84;5033202;28;20089;-67
2022/07/01 08:01:15;;;;;;;13.35;12.20;;;;;;;27.92;39.48;100484.06;5037950;28;20128;-66
2022/07/01 08:03:42;;;;;;;15.75;11.27;;;;;;;27.90;38.90;100452.91;5044175;28;20081;-65
2022/07/01 08:06:09;;;;;;;12.35;11.40;;;;;;;28.25;39.11;100497.38;5038873;28;20455;-67
2022/07/01 08:08:36;;;;;;;10.07;9.27;;;;;;;28.48;38.83;100495.03;5044724;28;20045;-65
2022/07/01 08:11:03;;;;;;;11.10;10.05;;;;;;;28.50;38.52;100481.06;5038182;28;20052;-67
2022/07/01 08:13:31;;;;;;;10.10;9.25;;;;;;;28.70;38.56;100495.09;5040699;28;20053;-66
2022/07/01 08:15:58;;;;;;;10.07;9.30;;;;;;;28.80;38.05;100485.69;5044004;28;20161;-65
2022/07/01 08:18:25;;;;;;;8.95;8.38;;;;;;;28.80;37.60;100488.56;5031724;28;20073;-66
2022/07/01 08:20:55;;;;;;;9.50;8.80;;;;;;;28.98;37.43;100494.34;5039258;28;20077;-67
2022/07/01 08:23:22;;;;;;;8.63;8.00;;;;;;;29.08;37.46;100489.88;5040058;28;20581;-67
2022/07/01 08:25:50;;;;;;;12.27;10.02;;;;;;;29.25;36.31;100494.81;5044666;28;20160;-66
2022/07/01 08:28:17;;;;;;;12.13;10.98;;;;;;;29.29;36.49;100489.88;5038469;28;20069;-67
2022/07/01 08:30:44;;;;;;;11.02;10.18;;;;;;;29.31;36.02;100481.69;5042762;28;20152;-68
2022/07/01 08:33:11;;;;;;;9.55;8.95;;;;;;;29.33;35.37;100467.69;5036377;28;20073;-67
2022/07/01 08:35:39;;;;;;;9.38;8.70;;;;;;;29.19;35.35;100493.56;5049010;28;20334;-67
2022/07/01 08:38:06;;;;;;;8.65;7.97;;;;;;;29.21;35.64;100491.13;5044088;28;20048;-66
2022/07/01 08:40:33;;;;;;;8.70;8.20;;;;;;;29.39;35.08;100491.13;5047007;28;20052;-67
2022/07/01 08:43:03;;;;;;;9.32;8.75;;;;;;;29.59;34.89;100477.16;5040554;28;20080;-67
2022/07/01 08:45:32;;;;;;;8.82;8.23;;;;;;;29.79;34.71;100487.00;5048912;28;20076;-66
2022/07/01 08:48:00;;;;;;;10.52;9.63;;;;;;;29.90;34.42;100487.00;5047054;28;20140;-66
2022/07/01 08:50:37;;;;;;;10.63;9.65;;;;;;;29.96;34.11;100485.34;5043076;28;20049;-68
2022/07/01 08:53:06;;;;;;;9.90;9.27;;;;;;;30.13;34.29;100498.03;5046450;28;20088;-66
2022/07/01 08:56:40;;;;;;;10.70;9.87;;;;;;;30.23;34.37;100491.47;5044781;28;20080;-68
2022/07/01 08:58:21;;;;;;;10.82;10.13;;;;;;;30.25;34.13;100473.75;5048988;28;20131;-67
2022/07/01 09:00:48;;;;;;;9.10;8.45;;;;;;;30.39;33.44;100500.47;5047835;28;20412;-67
2022/07/01 09:03:15;;;;;;;11.05;10.45;;;;;;;30.39;32.93;100491.81;5046096;28;20137;-66
2022/07/01 09:05:54;;;;;;;8.57;7.82;;;;;;;30.64;33.39;100490.88;5047016;28;20060;-67
2022/07/01 09:08:27;;;;;;;8.93;8.27;;;;;;;30.59;33.42;100488.41;5036751;28;20049;-67
2022/07/01 09:10:54;;;;;;;8.77;8.00;;;;;;;30.44;32.64;100468.31;5049798;28;20832;-67
2022/07/01 09:13:21;;;;;;;8.15;7.63;;;;;;;30.71;32.75;100490.84;5048817;28;20567;-66
2022/07/01 09:15:47;;;;;;;9.13;8.45;;;;;;;30.85;32.58;100496.53;5042714;28;20130;-67
2022/07/01 09:18:17;;;;;;;8.52;7.80;;;;;;;30.95;32.63;100482.47;5043041;28;20483;-67
2022/07/01 09:20:47;;;;;;;10.60;9.93;;;;;;;31.00;31.84;100490.69;5050744;28;20512;-67
2022/07/01 09:23:17;;;;;;;8.40;7.95;;;;;;;31.03;32.16;100486.94;5048418;28;20045;-66
2022/07/01 09:25:47;;;;;;;8.23;7.68;;;;;;;31.14;31.83;100490.56;5039304;28;20106;-67
2022/07/01 09:28:23;;;;;;;9.13;8.35;;;;;;;31.14;31.61;100490.56;5041012;28;20127;-66
2022/07/01 09:30:53;;;;;;;8.82;8.02;;;;;;;31.18;32.29;100476.97;5044263;28;20056;-66
2022/07/01 09:33:28;;;;;;;13.82;8.35;;;;;;;31.41;31.60;100504.41;5045730;28;20140;-67
2022/07/01 09:35:56;;;;;;;8.10;7.60;;;;;;;31.41;31.15;100478.44;5044421;28;20086;-67
2022/07/01 09:38:25;;;;;;;9.10;8.57;;;;;;;31.25;31.62;100453.81;5045486;28;20056;-66
2022/07/01 09:41:03;;;;;;;9.13;8.52;;;;;;;31.51;30.70;100484.13;5039229;28;20045;-66
2022/07/01 09:43:33;;;;;;;9.98;8.85;;;;;;;31.64;30.96;100490.19;5044807;28;20060;-67
2022/07/01 09:46:06;;;;;;;8.48;7.97;;;;;;;31.80;30.35;100496.22;5038325;28;20060;-66
2022/07/01 09:48:33;;;;;;;9.30;8.70;;;;;;;31.85;30.41;100495.75;5043883;28;20045;-66
2022/07/01 09:51:02;;;;;;;8.75;8.05;;;;;;;31.84;30.01;100485.44;5039912;28;20056;-66
2022/07/01 09:53:29;;;;;;;10.32;9.63;;;;;;;31.87;30.17;100486.69;5042259;28;20057;-67
2022/07/01 09:55:56;;;;;;;8.77;8.13;;;;;;;31.80;30.12;100472.31;5042872;28;20140;-66
2022/07/01 09:58:23;;;;;;;11.30;9.85;;;;;;;31.98;29.83;100492.34;5048815;28;20131;-66
2022/07/01 10:00:52;;;;;;;9.10;8.20;;;;;;;32.05;29.65;100472.06;5043703;28;20152;-67
2022/07/01 10:03:20;;;;;;;9.50;8.80;;;;;;;32.10;29.48;100477.34;5044674;28;20053;-69
2022/07/01 10:05:54;;;;;;;9.20;8.55;;;;;;;32.00;29.61;100473.34;5048206;28;20064;-66
2022/07/01 10:08:55;;;;;;;8.98;8.40;;;;;;;32.12;29.93;100480.63;5080958;28;20053;-67
2022/07/01 10:11:41;;;;;;;10.95;10.35;;;;;;;32.13;29.74;100469.91;5038794;28;20172;-66
2022/07/01 10:14:11;;;;;;;7.68;7.28;;;;;;;32.21;29.41;100462.81;5039515;28;20124;-67
2022/07/01 10:16:41;;;;;;;11.52;10.43;;;;;;;32.21;29.05;100477.25;5043745;28;20140;-66
2022/07/01 10:19:30;;;;;;;10.75;9.77;;;;;;;32.22;29.39;100473.09;5031903;28;20435;-66
2022/07/01 10:22:26;;;;;;;8.18;7.68;;;;;;;32.22;29.11;100473.91;5041047;28;20550;-67
2022/07/01 10:24:53;;;;;;;9.23;8.73;;;;;;;32.16;28.87;100463.25;5041155;28;20115;-66
2022/07/01 10:27:23;;;;;;;8.55;8.05;;;;;;;32.26;28.43;100471.78;5039358;28;20067;-66
2022/07/01 10:30:13;;;;;;;10.93;10.23;;;;;;;32.21;28.63;100466.50;5042600;28;20397;-67
2022/07/01 10:32:48;;;;;;;8.77;8.02;;;;;;;32.17;28.68;100450.44;5041387;28;20057;-66
2022/07/01 10:35:36;;;;;;;8.48;7.88;;;;;;;32.25;28.64;100463.56;5035840;28;20462;-67
2022/07/01 10:38:03;;;;;;;9.52;8.80;;;;;;;32.21;28.75;100448.34;5042225;28;20132;-66
2022/07/01 10:40:50;;;;;;;9.38;8.63;;;;;;;32.22;29.27;100458.66;5040231;28;20443;-66
2022/07/01 10:43:34;;;;;;;10.18;9.38;;;;;;;32.03;29.52;100448.56;5031266;28;20137;-67
2022/07/01 10:46:04;;;;;;;10.65;9.55;;;;;;;32.01;30.06;100456.84;5039207;28;20053;-67
2022/07/01 10:48:32;;;;;;;9.38;8.35;;;;;;;31.93;30.36;100440.81;5043514;28;20415;-67
2022/07/01 10:51:00;;;;;;;10.00;9.30;;;;;;;31.92;30.54;100460.22;5044970;28;20059;-67
2022/07/01 10:53:47;;;;;;;10.77;10.07;;;;;;;31.95;30.31;100435.44;5044625;28;20111;-66
2022/07/01 10:56:38;;;;;;;12.38;11.27;;;;;;;31.98;30.80;100446.16;5035173;28;20446;-66
2022/07/01 10:59:05;;;;;;;10.90;10.05;;;;;;;31.91;30.90;100457.78;5032902;28;20135;-66
2022/07/01 11:01:32;;;;;;;13.43;12.40;;;;;;;31.86;30.86;100450.34;5043581;28;20137;-66
2022/07/01 11:04:01;;;;;;;10.07;9.13;;;;;;;31.82;31.08;100441.72;5047340;28;20100;-67
2022/07/01 11:06:29;;;;;;;9.73;8.82;;;;;;;31.64;31.39;100426.69;5044015;28;20061;-65
2022/07/01 11:08:56;;;;;;;9.60;9.00;;;;;;;31.57;31.31;100438.31;5030273;28;20055;-66
2022/07/01 11:11:24;;;;;;;9.98;9.27;;;;;;;31.66;31.15;100444.41;5037302;28;20129;-66
2022/07/01 11:13:57;;;;;;;10.88;9.82;;;;;;;31.73;31.13;100453.00;5040440;28;20081;-67
2022/07/01 11:16:24;;;;;;;9.02;8.32;;;;;;;31.64;31.24;100432.47;5038494;28;20144;-65
2022/07/01 11:18:51;;;;;;;12.93;11.98;;;;;;;31.63;31.26;100436.59;5044393;28;20049;-66
2022/07/01 11:21:17;;;;;;;12.70;11.63;;;;;;;31.89;31.23;100449.53;5042362;28;20457;-65
2022/07/01 11:23:53;;;;;;;10.25;9.45;;;;;;;31.91;30.83;100435.50;5041071;28;20145;-67
2022/07/01 11:26:24;;;;;;;12.82;11.82;;;;;;;31.70;31.27;100410.53;5061161;28;20160;-67
2022/07/01 11:28:51;;;;;;;11.35;8.98;;;;;;;31.84;31.16;100436.38;5047220;28;20075;-67
2022/07/01 11:31:29;;;;;;;9.32;8.52;;;;;;;31.71;31.05;100376.72;5041589;28;20140;-66
2022/07/01 11:33:57;;;;;;;9.80;8.80;;;;;;;32.17;31.04;100436.00;5041058;28;20088;-66
2022/07/01 11:39:24;;;;;;;13.43;12.10;;;;;;;32.32;30.79;100431.69;5042698;28;20052;-66
2022/07/01 11:42:04;;;;;;;10.23;9.23;;;;;;;32.31;30.96;100427.16;5040696;28;20059;-66
2022/07/01 11:44:37;;;;;;;12.18;10.95;;;;;;;32.26;30.84;100428.44;5039608;28;20806;-66